sensor_id;sensor_type;location;lat;lon;timestamp;P1;durP1;ratioP1;P2;durP2;ratioP2
3189;SDS011;1606;51.946;10.558;2023-06-22T00:00:53;16.00;;;10.03;;
3189;SDS011;1606;51.946;10.558;2023-06-22T00:03:21;15.73;;;10.70;;
3189;SDS011;1606;51.946;10.558;2023-06-22T00:05:51;14.73;;;11.03;;
3189;SDS011;1606;51.946;10.558;2023-06-22T00:08:19;15.80;;;11.43;;
3189;SDS011;1606;51.946;10.558;2023-06-22T00:10:47;18.23;;;10.33;;
3189;SDS011;1606;51.946;10.558;2023-06-22T00:13:16;20.20;;;10.07;;
3189;SDS011;1606;51.946;10.558;2023-06-22T00:15:45;18.83;;;10.00;;
3189;SDS011;1606;51.946;10.558;2023-06-22T00:18:13;17.23;;;10.30;;
3189;SDS011;1606;51.946;10.558;2023-06-22T00:20:41;19.83;;;11.07;;
3189;SDS011;1606;51.946;10.558;2023-06-22T00:23:25;19.10;;;9.90;;
3189;SDS011;1606;51.946;10.558;2023-06-22T00:25:53;20.57;;;9.73;;
3189;SDS011;1606;51.946;10.558;2023-06-22T00:28:21;18.60;;;10.30;;
3189;SDS011;1606;51.946;10.558;2023-06-22T00:30:52;14.30;;;9.90;;
3189;SDS011;1606;51.946;10.558;2023-06-22T00:33:20;15.77;;;9.90;;
3189;SDS011;1606;51.946;10.558;2023-06-22T00:35:47;16.70;;;10.87;;
3189;SDS011;1606;51.946;10.558;2023-06-22T00:38:19;16.00;;;9.90;;
3189;SDS011;1606;51.946;10.558;2023-06-22T00:40:47;15.40;;;10.03;;
3189;SDS011;1606;51.946;10.558;2023-06-22T00:43:15;14.80;;;9.50;;
3189;SDS011;1606;51.946;10.558;2023-06-22T00:45:43;14.80;;;10.00;;
3189;SDS011;1606;51.946;10.558;2023-06-22T00:48:12;17.40;;;9.90;;
3189;SDS011;1606;51.946;10.558;2023-06-22T00:50:41;18.10;;;10.23;;
3189;SDS011;1606;51.946;10.558;2023-06-22T00:53:10;23.80;;;12.93;;
3189;SDS011;1606;51.946;10.558;2023-06-22T00:55:38;17.23;;;10.57;;
3189;SDS011;1606;51.946;10.558;2023-06-22T00:58:09;17.93;;;10.80;;
3189;SDS011;1606;51.946;10.558;2023-06-22T01:00:38;20.33;;;10.07;;
3189;SDS011;1606;51.946;10.558;2023-06-22T01:03:06;19.67;;;12.57;;
3189;SDS011;1606;51.946;10.558;2023-06-22T01:05:38;16.00;;;9.47;;
3189;SDS011;1606;51.946;10.558;2023-06-22T01:08:10;14.83;;;9.80;;
3189;SDS011;1606;51.946;10.558;2023-06-22T01:10:45;19.33;;;11.57;;
3189;SDS011;1606;51.946;10.558;2023-06-22T01:13:23;17.27;;;10.83;;
3189;SDS011;1606;51.946;10.558;2023-06-22T01:15:57;19.60;;;11.80;;
3189;SDS011;1606;51.946;10.558;2023-06-22T01:18:30;21.60;;;13.13;;
3189;SDS011;1606;51.946;10.558;2023-06-22T01:21:00;17.70;;;11.60;;
3189;SDS011;1606;51.946;10.558;2023-06-22T01:23:37;19.70;;;10.00;;
3189;SDS011;1606;51.946;10.558;2023-06-22T01:26:18;18.37;;;11.03;;
3189;SDS011;1606;51.946;10.558;2023-06-22T01:28:50;19.00;;;10.13;;
3189;SDS011;1606;51.946;10.558;2023-06-22T01:31:22;17.40;;;11.27;;
3189;SDS011;1606;51.946;10.558;2023-06-22T01:33:52;19.80;;;10.33;;
3189;SDS011;1606;51.946;10.558;2023-06-22T01:36:22;22.47;;;11.70;;
3189;SDS011;1606;51.946;10.558;2023-06-22T01:38:52;18.70;;;9.87;;
3189;SDS011;1606;51.946;10.558;2023-06-22T01:41:20;16.80;;;10.17;;
3189;SDS011;1606;51.946;10.558;2023-06-22T01:43:53;18.33;;;10.43;;
3189;SDS011;1606;51.946;10.558;2023-06-22T01:46:22;19.57;;;11.00;;
3189;SDS011;1606;51.946;10.558;2023-06-22T01:48:50;21.13;;;10.20;;
3189;SDS011;1606;51.946;10.558;2023-06-22T01:51:18;21.40;;;11.67;;
3189;SDS011;1606;51.946;10.558;2023-06-22T01:53:46;20.83;;;10.17;;
3189;SDS011;1606;51.946;10.558;2023-06-22T01:56:15;17.57;;;10.67;;
3189;SDS011;1606;51.946;10.558;2023-06-22T01:58:47;22.80;;;12.43;;
3189;SDS011;1606;51.946;10.558;2023-06-22T02:01:20;17.53;;;10.00;;
3189;SDS011;1606;51.946;10.558;2023-06-22T02:03:52;18.87;;;10.87;;
3189;SDS011;1606;51.946;10.558;2023-06-22T02:06:30;15.30;;;9.87;;
3189;SDS011;1606;51.946;10.558;2023-06-22T02:09:02;17.03;;;11.40;;
3189;SDS011;1606;51.946;10.558;2023-06-22T02:11:33;16.03;;;11.20;;
3189;SDS011;1606;51.946;10.558;2023-06-22T02:14:02;18.70;;;10.40;;
3189;SDS011;1606;51.946;10.558;2023-06-22T02:16:32;18.80;;;10.30;;
3189;SDS011;1606;51.946;10.558;2023-06-22T02:19:00;17.13;;;9.47;;
3189;SDS011;1606;51.946;10.558;2023-06-22T02:21:30;25.43;;;11.07;;
3189;SDS011;1606;51.946;10.558;2023-06-22T02:23:58;26.33;;;10.50;;
3189;SDS011;1606;51.946;10.558;2023-06-22T02:26:26;19.10;;;10.60;;
3189;SDS011;1606;51.946;10.558;2023-06-22T02:28:54;18.73;;;11.80;;
3189;SDS011;1606;51.946;10.558;2023-06-22T02:31:22;23.10;;;11.40;;
3189;SDS011;1606;51.946;10.558;2023-06-22T02:33:59;20.03;;;10.77;;
3189;SDS011;1606;51.946;10.558;2023-06-22T02:36:27;17.33;;;11.07;;
3189;SDS011;1606;51.946;10.558;2023-06-22T02:38:57;15.67;;;9.30;;
3189;SDS011;1606;51.946;10.558;2023-06-22T02:41:25;18.63;;;10.53;;
3189;SDS011;1606;51.946;10.558;2023-06-22T02:43:52;18.47;;;10.53;;
3189;SDS011;1606;51.946;10.558;2023-06-22T02:46:20;21.70;;;12.00;;
3189;SDS011;1606;51.946;10.558;2023-06-22T02:48:48;17.83;;;10.73;;
3189;SDS011;1606;51.946;10.558;2023-06-22T02:51:17;18.80;;;10.87;;
3189;SDS011;1606;51.946;10.558;2023-06-22T02:53:45;23.20;;;10.57;;
3189;SDS011;1606;51.946;10.558;2023-06-22T02:56:13;17.07;;;10.50;;
3189;SDS011;1606;51.946;10.558;2023-06-22T02:58:41;20.63;;;10.00;;
3189;SDS011;1606;51.946;10.558;2023-06-22T03:01:09;15.80;;;10.63;;
3189;SDS011;1606;51.946;10.558;2023-06-22T03:03:39;21.77;;;11.90;;
3189;SDS011;1606;51.946;10.558;2023-06-22T03:06:07;18.60;;;9.63;;
3189;SDS011;1606;51.946;10.558;2023-06-22T03:08:41;18.30;;;9.50;;
3189;SDS011;1606;51.946;10.558;2023-06-22T03:11:09;23.90;;;11.63;;
3189;SDS011;1606;51.946;10.558;2023-06-22T03:13:37;25.60;;;11.20;;
3189;SDS011;1606;51.946;10.558;2023-06-22T03:16:05;16.70;;;11.57;;
3189;SDS011;1606;51.946;10.558;2023-06-22T03:18:33;17.60;;;11.00;;
3189;SDS011;1606;51.946;10.558;2023-06-22T03:21:00;19.83;;;11.03;;
3189;SDS011;1606;51.946;10.558;2023-06-22T03:23:28;19.00;;;10.90;;
3189;SDS011;1606;51.946;10.558;2023-06-22T03:25:57;18.67;;;11.13;;
3189;SDS011;1606;51.946;10.558;2023-06-22T03:28:25;21.10;;;11.37;;
3189;SDS011;1606;51.946;10.558;2023-06-22T03:30:53;18.00;;;11.17;;
3189;SDS011;1606;51.946;10.558;2023-06-22T03:33:21;22.30;;;10.00;;
3189;SDS011;1606;51.946;10.558;2023-06-22T03:35:49;23.10;;;11.17;;
3189;SDS011;1606;51.946;10.558;2023-06-22T03:38:17;17.17;;;9.83;;
3189;SDS011;1606;51.946;10.558;2023-06-22T03:40:45;21.13;;;10.57;;
3189;SDS011;1606;51.946;10.558;2023-06-22T03:43:14;21.70;;;10.60;;
3189;SDS011;1606;51.946;10.558;2023-06-22T03:45:42;19.20;;;11.53;;
3189;SDS011;1606;51.946;10.558;2023-06-22T03:48:11;23.03;;;11.30;;
3189;SDS011;1606;51.946;10.558;2023-06-22T03:50:39;21.80;;;10.83;;
3189;SDS011;1606;51.946;10.558;2023-06-22T03:53:07;26.77;;;11.93;;
3189;SDS011;1606;51.946;10.558;2023-06-22T03:55:35;17.63;;;11.50;;
3189;SDS011;1606;51.946;10.558;2023-06-22T03:58:03;21.30;;;12.30;;
3189;SDS011;1606;51.946;10.558;2023-06-22T04:00:33;21.60;;;12.30;;
3189;SDS011;1606;51.946;10.558;2023-06-22T04:03:01;19.03;;;12.80;;
3189;SDS011;1606;51.946;10.558;2023-06-22T04:05:29;20.20;;;11.57;;
3189;SDS011;1606;51.946;10.558;2023-06-22T04:07:57;19.70;;;10.93;;
3189;SDS011;1606;51.946;10.558;2023-06-22T04:10:24;21.80;;;12.70;;
3189;SDS011;1606;51.946;10.558;2023-06-22T04:12:52;19.87;;;10.60;;
3189;SDS011;1606;51.946;10.558;2023-06-22T04:15:20;17.90;;;10.50;;
3189;SDS011;1606;51.946;10.558;2023-06-22T04:17:49;18.73;;;11.43;;
3189;SDS011;1606;51.946;10.558;2023-06-22T04:20:17;19.50;;;11.67;;
3189;SDS011;1606;51.946;10.558;2023-06-22T04:22:45;16.13;;;10.47;;
3189;SDS011;1606;51.946;10.558;2023-06-22T04:25:13;15.57;;;10.60;;
3189;SDS011;1606;51.946;10.558;2023-06-22T04:27:41;21.53;;;12.87;;
3189;SDS011;1606;51.946;10.558;2023-06-22T04:30:09;18.07;;;12.20;;
3189;SDS011;1606;51.946;10.558;2023-06-22T04:32:38;15.07;;;11.10;;
3189;SDS011;1606;51.946;10.558;2023-06-22T04:35:09;17.37;;;11.50;;
3189;SDS011;1606;51.946;10.558;2023-06-22T04:37:37;17.60;;;10.57;;
3189;SDS011;1606;51.946;10.558;2023-06-22T04:40:05;17.90;;;10.97;;
3189;SDS011;1606;51.946;10.558;2023-06-22T04:42:34;16.20;;;10.87;;
3189;SDS011;1606;51.946;10.558;2023-06-22T04:45:05;16.23;;;11.40;;
3189;SDS011;1606;51.946;10.558;2023-06-22T04:47:33;16.00;;;9.90;;
3189;SDS011;1606;51.946;10.558;2023-06-22T04:50:05;16.47;;;9.87;;
3189;SDS011;1606;51.946;10.558;2023-06-22T04:52:35;16.00;;;10.43;;
3189;SDS011;1606;51.946;10.558;2023-06-22T04:55:03;18.60;;;9.40;;
3189;SDS011;1606;51.946;10.558;2023-06-22T04:57:32;16.93;;;9.87;;
3189;SDS011;1606;51.946;10.558;2023-06-22T05:00:00;16.93;;;9.53;;
3189;SDS011;1606;51.946;10.558;2023-06-22T05:02:38;17.07;;;10.13;;
3189;SDS011;1606;51.946;10.558;2023-06-22T05:05:07;19.10;;;11.23;;
3189;SDS011;1606;51.946;10.558;2023-06-22T05:07:41;18.30;;;9.30;;
3189;SDS011;1606;51.946;10.558;2023-06-22T05:10:10;18.93;;;10.40;;
3189;SDS011;1606;51.946;10.558;2023-06-22T05:12:39;17.33;;;10.17;;
3189;SDS011;1606;51.946;10.558;2023-06-22T05:15:07;16.40;;;10.80;;
3189;SDS011;1606;51.946;10.558;2023-06-22T05:17:36;16.40;;;11.70;;
3189;SDS011;1606;51.946;10.558;2023-06-22T05:20:09;16.47;;;10.70;;
3189;SDS011;1606;51.946;10.558;2023-06-22T05:22:38;14.70;;;9.90;;
3189;SDS011;1606;51.946;10.558;2023-06-22T05:25:09;15.70;;;10.87;;
3189;SDS011;1606;51.946;10.558;2023-06-22T05:27:38;21.10;;;11.63;;
3189;SDS011;1606;51.946;10.558;2023-06-22T05:30:06;20.63;;;12.97;;
3189;SDS011;1606;51.946;10.558;2023-06-22T05:32:35;19.40;;;11.70;;
3189;SDS011;1606;51.946;10.558;2023-06-22T05:35:03;19.30;;;11.57;;
3189;SDS011;1606;51.946;10.558;2023-06-22T05:37:32;17.50;;;11.67;;
3189;SDS011;1606;51.946;10.558;2023-06-22T05:40:00;16.50;;;12.10;;
3189;SDS011;1606;51.946;10.558;2023-06-22T05:42:29;16.87;;;10.30;;
3189;SDS011;1606;51.946;10.558;2023-06-22T05:44:57;17.97;;;12.63;;
3189;SDS011;1606;51.946;10.558;2023-06-22T05:47:25;18.40;;;12.50;;
3189;SDS011;1606;51.946;10.558;2023-06-22T05:49:53;16.57;;;11.60;;
3189;SDS011;1606;51.946;10.558;2023-06-22T05:52:20;19.10;;;12.73;;
3189;SDS011;1606;51.946;10.558;2023-06-22T05:54:48;18.40;;;12.97;;
3189;SDS011;1606;51.946;10.558;2023-06-22T05:57:16;18.47;;;12.77;;
3189;SDS011;1606;51.946;10.558;2023-06-22T05:59:45;18.47;;;14.37;;
3189;SDS011;1606;51.946;10.558;2023-06-22T06:02:13;19.13;;;12.20;;
3189;SDS011;1606;51.946;10.558;2023-06-22T06:04:41;17.73;;;12.87;;
3189;SDS011;1606;51.946;10.558;2023-06-22T06:07:09;17.10;;;12.80;;
3189;SDS011;1606;51.946;10.558;2023-06-22T06:09:37;20.50;;;13.07;;
3189;SDS011;1606;51.946;10.558;2023-06-22T06:12:05;22.30;;;15.33;;
3189;SDS011;1606;51.946;10.558;2023-06-22T06:14:33;16.80;;;12.70;;
3189;SDS011;1606;51.946;10.558;2023-06-22T06:17:02;24.97;;;14.40;;
3189;SDS011;1606;51.946;10.558;2023-06-22T06:19:30;17.53;;;13.63;;
3189;SDS011;1606;51.946;10.558;2023-06-22T06:21:58;21.85;;;15.00;;
3189;SDS011;1606;51.946;10.558;2023-06-22T06:24:26;19.93;;;14.20;;
3189;SDS011;1606;51.946;10.558;2023-06-22T06:26:54;22.33;;;13.53;;
3189;SDS011;1606;51.946;10.558;2023-06-22T06:29:22;20.83;;;14.40;;
3189;SDS011;1606;51.946;10.558;2023-06-22T06:31:50;22.90;;;14.53;;
3189;SDS011;1606;51.946;10.558;2023-06-22T06:34:21;24.53;;;15.80;;
3189;SDS011;1606;51.946;10.558;2023-06-22T06:36:49;20.27;;;14.90;;
3189;SDS011;1606;51.946;10.558;2023-06-22T06:39:17;22.20;;;13.10;;
3189;SDS011;1606;51.946;10.558;2023-06-22T06:41:45;23.00;;;14.67;;
3189;SDS011;1606;51.946;10.558;2023-06-22T06:44:12;24.43;;;15.30;;
3189;SDS011;1606;51.946;10.558;2023-06-22T06:46:40;21.20;;;16.33;;
3189;SDS011;1606;51.946;10.558;2023-06-22T06:49:08;20.23;;;14.53;;
3189;SDS011;1606;51.946;10.558;2023-06-22T06:51:38;21.30;;;16.17;;
3189;SDS011;1606;51.946;10.558;2023-06-22T06:54:05;22.40;;;15.30;;
3189;SDS011;1606;51.946;10.558;2023-06-22T06:56:34;19.87;;;15.10;;
3189;SDS011;1606;51.946;10.558;2023-06-22T06:59:02;21.40;;;14.80;;
3189;SDS011;1606;51.946;10.558;2023-06-22T07:01:29;25.73;;;14.95;;
3189;SDS011;1606;51.946;10.558;2023-06-22T07:04:00;25.07;;;17.50;;
3189;SDS011;1606;51.946;10.558;2023-06-22T07:06:28;19.57;;;14.50;;
3189;SDS011;1606;51.946;10.558;2023-06-22T07:08:59;21.00;;;16.10;;
3189;SDS011;1606;51.946;10.558;2023-06-22T07:11:28;24.20;;;16.43;;
3189;SDS011;1606;51.946;10.558;2023-06-22T07:13:56;19.73;;;14.50;;
3189;SDS011;1606;51.946;10.558;2023-06-22T07:16:24;18.63;;;14.33;;
3189;SDS011;1606;51.946;10.558;2023-06-22T07:18:54;19.63;;;14.47;;
3189;SDS011;1606;51.946;10.558;2023-06-22T07:21:21;25.20;;;16.80;;
3189;SDS011;1606;51.946;10.558;2023-06-22T07:23:49;17.90;;;14.17;;
3189;SDS011;1606;51.946;10.558;2023-06-22T07:26:19;18.63;;;13.63;;
3189;SDS011;1606;51.946;10.558;2023-06-22T07:28:46;17.70;;;14.83;;
3189;SDS011;1606;51.946;10.558;2023-06-22T07:31:14;20.83;;;15.43;;
3189;SDS011;1606;51.946;10.558;2023-06-22T07:33:42;19.00;;;15.00;;
3189;SDS011;1606;51.946;10.558;2023-06-22T07:36:10;18.37;;;12.90;;
3189;SDS011;1606;51.946;10.558;2023-06-22T07:38:38;20.07;;;15.73;;
3189;SDS011;1606;51.946;10.558;2023-06-22T07:41:06;20.13;;;14.33;;
3189;SDS011;1606;51.946;10.558;2023-06-22T07:43:35;19.60;;;14.30;;
3189;SDS011;1606;51.946;10.558;2023-06-22T07:46:03;18.03;;;13.93;;
3189;SDS011;1606;51.946;10.558;2023-06-22T07:48:31;19.40;;;14.33;;
3189;SDS011;1606;51.946;10.558;2023-06-22T07:50:59;15.20;;;12.13;;
3189;SDS011;1606;51.946;10.558;2023-06-22T07:53:27;19.67;;;14.63;;
3189;SDS011;1606;51.946;10.558;2023-06-22T07:55:54;17.60;;;11.90;;
3189;SDS011;1606;51.946;10.558;2023-06-22T07:58:22;17.03;;;13.43;;
3189;SDS011;1606;51.946;10.558;2023-06-22T08:00:52;17.07;;;14.03;;
3189;SDS011;1606;51.946;10.558;2023-06-22T08:03:19;18.30;;;13.33;;
3189;SDS011;1606;51.946;10.558;2023-06-22T08:05:47;17.43;;;13.67;;
3189;SDS011;1606;51.946;10.558;2023-06-22T08:08:16;18.37;;;13.97;;
3189;SDS011;1606;51.946;10.558;2023-06-22T08:10:44;18.40;;;14.20;;
3189;SDS011;1606;51.946;10.558;2023-06-22T08:13:11;18.20;;;14.47;;
3189;SDS011;1606;51.946;10.558;2023-06-22T08:15:39;16.40;;;13.40;;
3189;SDS011;1606;51.946;10.558;2023-06-22T08:18:08;20.83;;;15.80;;
3189;SDS011;1606;51.946;10.558;2023-06-22T08:20:36;17.77;;;15.37;;
3189;SDS011;1606;51.946;10.558;2023-06-22T08:23:04;20.63;;;15.30;;
3189;SDS011;1606;51.946;10.558;2023-06-22T08:25:32;17.23;;;13.83;;
3189;SDS011;1606;51.946;10.558;2023-06-22T08:28:01;20.17;;;15.30;;
3189;SDS011;1606;51.946;10.558;2023-06-22T08:30:29;20.50;;;16.00;;
3189;SDS011;1606;51.946;10.558;2023-06-22T08:32:57;18.80;;;15.53;;
3189;SDS011;1606;51.946;10.558;2023-06-22T08:35:26;21.80;;;15.77;;
3189;SDS011;1606;51.946;10.558;2023-06-22T08:37:56;20.90;;;16.80;;
3189;SDS011;1606;51.946;10.558;2023-06-22T08:40:24;19.50;;;15.63;;
3189;SDS011;1606;51.946;10.558;2023-06-22T08:42:52;22.37;;;15.13;;
3189;SDS011;1606;51.946;10.558;2023-06-22T08:45:20;19.57;;;16.47;;
3189;SDS011;1606;51.946;10.558;2023-06-22T08:47:48;21.47;;;17.60;;
3189;SDS011;1606;51.946;10.558;2023-06-22T08:50:16;21.67;;;17.13;;
3189;SDS011;1606;51.946;10.558;2023-06-22T08:52:45;18.67;;;15.43;;
3189;SDS011;1606;51.946;10.558;2023-06-22T08:55:14;21.47;;;17.57;;
3189;SDS011;1606;51.946;10.558;2023-06-22T08:57:41;24.73;;;17.07;;
3189;SDS011;1606;51.946;10.558;2023-06-22T09:00:10;22.00;;;16.37;;
3189;SDS011;1606;51.946;10.558;2023-06-22T09:02:42;21.47;;;16.30;;
3189;SDS011;1606;51.946;10.558;2023-06-22T09:05:11;25.67;;;17.40;;
3189;SDS011;1606;51.946;10.558;2023-06-22T09:07:39;23.23;;;18.47;;
3189;SDS011;1606;51.946;10.558;2023-06-22T09:10:09;23.33;;;18.40;;
3189;SDS011;1606;51.946;10.558;2023-06-22T09:12:37;20.90;;;17.10;;
3189;SDS011;1606;51.946;10.558;2023-06-22T09:15:06;22.83;;;17.10;;
3189;SDS011;1606;51.946;10.558;2023-06-22T09:17:41;20.47;;;16.13;;
3189;SDS011;1606;51.946;10.558;2023-06-22T09:20:10;25.07;;;17.30;;
3189;SDS011;1606;51.946;10.558;2023-06-22T09:22:38;22.63;;;16.80;;
3189;SDS011;1606;51.946;10.558;2023-06-22T09:25:06;22.20;;;17.67;;
3189;SDS011;1606;51.946;10.558;2023-06-22T09:27:36;25.93;;;19.70;;
3189;SDS011;1606;51.946;10.558;2023-06-22T09:30:04;23.30;;;17.83;;
3189;SDS011;1606;51.946;10.558;2023-06-22T09:32:33;22.07;;;18.70;;
3189;SDS011;1606;51.946;10.558;2023-06-22T09:35:05;26.83;;;20.07;;
3189;SDS011;1606;51.946;10.558;2023-06-22T09:37:35;27.40;;;20.07;;
3189;SDS011;1606;51.946;10.558;2023-06-22T09:40:04;24.27;;;18.53;;
3189;SDS011;1606;51.946;10.558;2023-06-22T09:42:37;22.07;;;19.13;;
3189;SDS011;1606;51.946;10.558;2023-06-22T09:45:05;22.27;;;17.10;;
3189;SDS011;1606;51.946;10.558;2023-06-22T09:47:33;22.70;;;19.37;;
3189;SDS011;1606;51.946;10.558;2023-06-22T09:50:01;23.43;;;17.47;;
3189;SDS011;1606;51.946;10.558;2023-06-22T09:52:30;25.47;;;19.60;;
3189;SDS011;1606;51.946;10.558;2023-06-22T09:55:12;21.30;;;18.20;;
3189;SDS011;1606;51.946;10.558;2023-06-22T09:57:43;20.53;;;17.33;;
3189;SDS011;1606;51.946;10.558;2023-06-22T10:00:11;19.70;;;15.53;;
3189;SDS011;1606;51.946;10.558;2023-06-22T10:02:41;18.50;;;16.40;;
3189;SDS011;1606;51.946;10.558;2023-06-22T10:05:10;16.53;;;14.13;;
3189;SDS011;1606;51.946;10.558;2023-06-22T10:07:38;17.77;;;15.87;;
3189;SDS011;1606;51.946;10.558;2023-06-22T10:10:09;16.20;;;12.20;;
3189;SDS011;1606;51.946;10.558;2023-06-22T10:12:41;17.40;;;13.90;;
3189;SDS011;1606;51.946;10.558;2023-06-22T10:15:12;19.83;;;14.13;;
3189;SDS011;1606;51.946;10.558;2023-06-22T10:17:41;15.30;;;12.87;;
3189;SDS011;1606;51.946;10.558;2023-06-22T10:20:09;17.10;;;12.03;;
3189;SDS011;1606;51.946;10.558;2023-06-22T10:22:40;14.63;;;12.37;;
3189;SDS011;1606;51.946;10.558;2023-06-22T10:25:09;14.03;;;11.20;;
3189;SDS011;1606;51.946;10.558;2023-06-22T10:27:37;15.00;;;11.77;;
3189;SDS011;1606;51.946;10.558;2023-06-22T10:30:07;14.83;;;11.97;;
3189;SDS011;1606;51.946;10.558;2023-06-22T10:32:38;16.47;;;11.20;;
3189;SDS011;1606;51.946;10.558;2023-06-22T10:35:06;15.90;;;12.57;;
3189;SDS011;1606;51.946;10.558;2023-06-22T10:37:36;14.40;;;11.40;;
3189;SDS011;1606;51.946;10.558;2023-06-22T10:40:05;17.83;;;12.97;;
3189;SDS011;1606;51.946;10.558;2023-06-22T10:42:34;15.80;;;12.80;;
3189;SDS011;1606;51.946;10.558;2023-06-22T10:45:02;17.67;;;13.70;;
3189;SDS011;1606;51.946;10.558;2023-06-22T10:47:30;14.73;;;12.60;;
3189;SDS011;1606;51.946;10.558;2023-06-22T10:49:59;16.27;;;13.53;;
3189;SDS011;1606;51.946;10.558;2023-06-22T10:52:27;18.63;;;15.70;;
3189;SDS011;1606;51.946;10.558;2023-06-22T10:54:55;21.73;;;14.50;;
3189;SDS011;1606;51.946;10.558;2023-06-22T10:57:23;19.60;;;13.70;;
3189;SDS011;1606;51.946;10.558;2023-06-22T10:59:50;18.33;;;13.10;;
3189;SDS011;1606;51.946;10.558;2023-06-22T11:02:18;17.53;;;13.17;;
3189;SDS011;1606;51.946;10.558;2023-06-22T11:04:46;14.40;;;11.50;;
3189;SDS011;1606;51.946;10.558;2023-06-22T11:07:16;14.47;;;10.83;;
3189;SDS011;1606;51.946;10.558;2023-06-22T11:09:44;16.53;;;13.10;;
3189;SDS011;1606;51.946;10.558;2023-06-22T11:12:12;16.77;;;11.00;;
3189;SDS011;1606;51.946;10.558;2023-06-22T11:14:40;13.83;;;11.60;;
3189;SDS011;1606;51.946;10.558;2023-06-22T11:17:08;15.27;;;12.00;;
3189;SDS011;1606;51.946;10.558;2023-06-22T11:19:36;15.00;;;11.27;;
3189;SDS011;1606;51.946;10.558;2023-06-22T11:22:04;14.67;;;11.87;;
3189;SDS011;1606;51.946;10.558;2023-06-22T11:24:34;16.30;;;11.70;;
3189;SDS011;1606;51.946;10.558;2023-06-22T11:27:01;15.30;;;11.83;;
3189;SDS011;1606;51.946;10.558;2023-06-22T11:29:30;13.37;;;10.70;;
3189;SDS011;1606;51.946;10.558;2023-06-22T11:32:04;14.33;;;10.13;;
3189;SDS011;1606;51.946;10.558;2023-06-22T11:34:33;17.70;;;12.10;;
3189;SDS011;1606;51.946;10.558;2023-06-22T11:37:01;13.00;;;10.20;;
3189;SDS011;1606;51.946;10.558;2023-06-22T11:39:30;14.57;;;11.70;;
3189;SDS011;1606;51.946;10.558;2023-06-22T11:42:09;14.97;;;12.33;;
3189;SDS011;1606;51.946;10.558;2023-06-22T11:44:37;14.20;;;11.67;;
3189;SDS011;1606;51.946;10.558;2023-06-22T11:47:05;15.67;;;12.10;;
3189;SDS011;1606;51.946;10.558;2023-06-22T11:49:33;16.00;;;12.27;;
3189;SDS011;1606;51.946;10.558;2023-06-22T11:52:01;14.93;;;11.13;;
3189;SDS011;1606;51.946;10.558;2023-06-22T11:54:29;13.77;;;10.07;;
3189;SDS011;1606;51.946;10.558;2023-06-22T11:56:57;14.53;;;11.13;;
3189;SDS011;1606;51.946;10.558;2023-06-22T11:59:26;13.63;;;10.73;;
3189;SDS011;1606;51.946;10.558;2023-06-22T12:01:54;14.67;;;11.23;;
3189;SDS011;1606;51.946;10.558;2023-06-22T12:04:22;16.40;;;10.77;;
3189;SDS011;1606;51.946;10.558;2023-06-22T12:06:50;15.30;;;10.77;;
3189;SDS011;1606;51.946;10.558;2023-06-22T12:09:17;14.60;;;10.40;;
3189;SDS011;1606;51.946;10.558;2023-06-22T12:11:45;18.33;;;10.00;;
3189;SDS011;1606;51.946;10.558;2023-06-22T12:14:13;14.53;;;9.60;;
3189;SDS011;1606;51.946;10.558;2023-06-22T12:16:42;14.43;;;10.07;;
3189;SDS011;1606;51.946;10.558;2023-06-22T12:19:11;13.10;;;9.97;;
3189;SDS011;1606;51.946;10.558;2023-06-22T12:21:39;15.40;;;10.23;;
3189;SDS011;1606;51.946;10.558;2023-06-22T12:24:07;13.10;;;10.50;;
3189;SDS011;1606;51.946;10.558;2023-06-22T12:26:35;14.00;;;11.00;;
3189;SDS011;1606;51.946;10.558;2023-06-22T12:29:03;15.33;;;12.10;;
3189;SDS011;1606;51.946;10.558;2023-06-22T12:31:31;13.73;;;10.77;;
3189;SDS011;1606;51.946;10.558;2023-06-22T12:34:00;13.60;;;10.63;;
3189;SDS011;1606;51.946;10.558;2023-06-22T12:36:28;12.17;;;10.00;;
3189;SDS011;1606;51.946;10.558;2023-06-22T12:38:56;13.63;;;10.10;;
3189;SDS011;1606;51.946;10.558;2023-06-22T12:41:24;13.00;;;10.30;;
3189;SDS011;1606;51.946;10.558;2023-06-22T12:43:52;14.70;;;11.47;;
3189;SDS011;1606;51.946;10.558;2023-06-22T12:46:20;13.43;;;11.10;;
3189;SDS011;1606;51.946;10.558;2023-06-22T12:48:47;12.93;;;10.47;;
3189;SDS011;1606;51.946;10.558;2023-06-22T12:51:21;14.90;;;11.03;;
3189;SDS011;1606;51.946;10.558;2023-06-22T12:53:49;14.13;;;11.60;;
3189;SDS011;1606;51.946;10.558;2023-06-22T12:56:17;14.03;;;11.30;;
3189;SDS011;1606;51.946;10.558;2023-06-22T12:58:45;12.60;;;11.13;;
3189;SDS011;1606;51.946;10.558;2023-06-22T13:01:13;14.87;;;11.80;;
3189;SDS011;1606;51.946;10.558;2023-06-22T13:03:41;13.53;;;10.93;;
3189;SDS011;1606;51.946;10.558;2023-06-22T13:06:09;12.10;;;10.70;;
3189;SDS011;1606;51.946;10.558;2023-06-22T13:08:38;12.30;;;10.03;;
3189;SDS011;1606;51.946;10.558;2023-06-22T13:11:09;12.60;;;10.90;;
3189;SDS011;1606;51.946;10.558;2023-06-22T13:13:37;12.30;;;10.00;;
3189;SDS011;1606;51.946;10.558;2023-06-22T13:16:06;14.20;;;10.30;;
3189;SDS011;1606;51.946;10.558;2023-06-22T13:18:34;19.23;;;11.20;;
3189;SDS011;1606;51.946;10.558;2023-06-22T13:21:02;13.13;;;10.60;;
3189;SDS011;1606;51.946;10.558;2023-06-22T13:23:31;13.00;;;10.53;;
3189;SDS011;1606;51.946;10.558;2023-06-22T13:26:00;13.57;;;10.70;;
3189;SDS011;1606;51.946;10.558;2023-06-22T13:28:29;12.60;;;11.30;;
3189;SDS011;1606;51.946;10.558;2023-06-22T13:30:56;16.80;;;12.30;;
3189;SDS011;1606;51.946;10.558;2023-06-22T13:33:24;14.77;;;11.33;;
3189;SDS011;1606;51.946;10.558;2023-06-22T13:35:52;14.57;;;11.50;;
3189;SDS011;1606;51.946;10.558;2023-06-22T13:38:20;14.50;;;11.10;;
3189;SDS011;1606;51.946;10.558;2023-06-22T13:40:48;14.57;;;10.80;;
3189;SDS011;1606;51.946;10.558;2023-06-22T13:43:17;14.27;;;11.20;;
3189;SDS011;1606;51.946;10.558;2023-06-22T13:45:45;13.53;;;11.50;;
3189;SDS011;1606;51.946;10.558;2023-06-22T13:48:13;12.60;;;9.70;;
3189;SDS011;1606;51.946;10.558;2023-06-22T13:50:41;15.07;;;10.83;;
3189;SDS011;1606;51.946;10.558;2023-06-22T13:53:09;12.73;;;10.80;;
3189;SDS011;1606;51.946;10.558;2023-06-22T13:55:37;13.80;;;10.60;;
3189;SDS011;1606;51.946;10.558;2023-06-22T13:58:04;15.63;;;11.60;;
3189;SDS011;1606;51.946;10.558;2023-06-22T14:00:34;13.43;;;11.23;;
3189;SDS011;1606;51.946;10.558;2023-06-22T14:03:02;12.23;;;9.63;;
3189;SDS011;1606;51.946;10.558;2023-06-22T14:05:30;11.90;;;10.07;;
3189;SDS011;1606;51.946;10.558;2023-06-22T14:07:58;13.77;;;10.03;;
3189;SDS011;1606;51.946;10.558;2023-06-22T14:10:26;12.47;;;9.80;;
3189;SDS011;1606;51.946;10.558;2023-06-22T14:12:54;11.67;;;9.70;;
3189;SDS011;1606;51.946;10.558;2023-06-22T14:15:22;11.43;;;9.90;;
3189;SDS011;1606;51.946;10.558;2023-06-22T14:17:51;11.80;;;9.20;;
3189;SDS011;1606;51.946;10.558;2023-06-22T14:20:19;12.90;;;10.20;;
3189;SDS011;1606;51.946;10.558;2023-06-22T14:22:47;13.07;;;9.77;;
3189;SDS011;1606;51.946;10.558;2023-06-22T14:25:15;10.97;;;9.60;;
3189;SDS011;1606;51.946;10.558;2023-06-22T14:27:43;17.63;;;10.83;;
3189;SDS011;1606;51.946;10.558;2023-06-22T14:30:11;11.90;;;9.70;;
3189;SDS011;1606;51.946;10.558;2023-06-22T14:32:39;12.60;;;10.00;;
3189;SDS011;1606;51.946;10.558;2023-06-22T14:35:08;12.33;;;9.43;;
3189;SDS011;1606;51.946;10.558;2023-06-22T14:37:36;11.90;;;10.60;;
3189;SDS011;1606;51.946;10.558;2023-06-22T14:40:04;12.23;;;10.93;;
3189;SDS011;1606;51.946;10.558;2023-06-22T14:42:33;12.50;;;10.13;;
3189;SDS011;1606;51.946;10.558;2023-06-22T14:45:01;11.90;;;9.90;;